sensor_id;sensor_type;location;lat;lon;timestamp;pressure;altitude;pressure_sealevel;temperature;humidity
57562;BME280;43397;51.530;5.974;2022-07-29T00:02:07;101258.66;;;19.10;61.10
57562;BME280;43397;51.530;5.974;2022-07-29T00:04:34;101261.47;;;19.07;61.25
57562;BME280;43397;51.530;5.974;2022-07-29T00:07:03;101255.81;;;19.15;59.94
57562;BME280;43397;51.530;5.974;2022-07-29T00:09:32;101262.41;;;19.06;60.90
57562;BME280;43397;51.530;5.974;2022-07-29T00:12:00;101258.06;;;19.02;60.27
57562;BME280;43397;51.530;5.974;2022-07-29T00:14:26;101259.59;;;19.09;59.77
57562;BME280;43397;51.530;5.974;2022-07-29T00:16:52;101249.63;;;19.11;60.28
57562;BME280;43397;51.530;5.974;2022-07-29T00:19:18;101256.31;;;19.01;60.58
57562;BME280;43397;51.530;5.974;2022-07-29T00:21:44;101255.28;;;19.05;60.53
57562;BME280;43397;51.530;5.974;2022-07-29T00:24:10;101261.41;;;19.09;60.13
57562;BME280;43397;51.530;5.974;2022-07-29T00:26:37;101243.56;;;19.06;60.38
57562;BME280;43397;51.530;5.974;2022-07-29T00:29:04;101254.69;;;18.97;60.52
57562;BME280;43397;51.530;5.974;2022-07-29T00:31:29;101246.13;;;18.86;61.20
57562;BME280;43397;51.530;5.974;2022-07-29T00:33:56;101256.50;;;18.97;59.98
57562;BME280;43397;51.530;5.974;2022-07-29T00:36:22;101258.38;;;18.95;59.90
57562;BME280;43397;51.530;5.974;2022-07-29T00:38:51;101262.19;;;18.87;61.19
57562;BME280;43397;51.530;5.974;2022-07-29T00:41:17;101278.53;;;18.83;60.87
57562;BME280;43397;51.530;5.974;2022-07-29T00:43:45;101278.19;;;18.92;61.98
57562;BME280;43397;51.530;5.974;2022-07-29T00:46:11;101288.03;;;18.93;62.16
57562;BME280;43397;51.530;5.974;2022-07-29T00:48:37;101290.03;;;18.88;61.60
57562;BME280;43397;51.530;5.974;2022-07-29T00:51:04;101282.28;;;18.52;63.53
57562;BME280;43397;51.530;5.974;2022-07-29T00:53:31;101277.72;;;18.54;63.85
57562;BME280;43397;51.530;5.974;2022-07-29T00:55:57;101262.56;;;18.52;66.26
57562;BME280;43397;51.530;5.974;2022-07-29T00:58:24;101266.78;;;18.59;66.50
57562;BME280;43397;51.530;5.974;2022-07-29T01:00:51;101255.09;;;18.60;68.42
57562;BME280;43397;51.530;5.974;2022-07-29T01:03:17;101250.19;;;18.46;69.41
57562;BME280;43397;51.530;5.974;2022-07-29T01:05:44;101249.66;;;18.35;70.09
57562;BME280;43397;51.530;5.974;2022-07-29T01:08:11;101255.22;;;18.30;70.36
57562;BME280;43397;51.530;5.974;2022-07-29T01:10:38;101273.63;;;18.16;71.39
57562;BME280;43397;51.530;5.974;2022-07-29T01:13:05;101277.28;;;18.13;74.69
57562;BME280;43397;51.530;5.974;2022-07-29T01:15:33;101286.88;;;17.94;76.25
57562;BME280;43397;51.530;5.974;2022-07-29T01:18:04;101287.50;;;18.03;76.93
57562;BME280;43397;51.530;5.974;2022-07-29T01:20:46;101274.56;;;17.86;75.25
57562;BME280;43397;51.530;5.974;2022-07-29T01:23:41;101274.13;;;18.00;77.01
57562;BME280;43397;51.530;5.974;2022-07-29T01:26:30;101296.09;;;17.86;77.97
57562;BME280;43397;51.530;5.974;2022-07-29T01:29:02;101323.16;;;17.79;79.23
57562;BME280;43397;51.530;5.974;2022-07-29T01:31:34;101335.03;;;17.72;80.51
57562;BME280;43397;51.530;5.974;2022-07-29T01:34:03;101349.78;;;17.27;84.65
57562;BME280;43397;51.530;5.974;2022-07-29T01:36:32;101365.66;;;17.36;83.85
57562;BME280;43397;51.530;5.974;2022-07-29T01:39:05;101353.31;;;17.29;86.28
57562;BME280;43397;51.530;5.974;2022-07-29T01:41:32;101339.53;;;17.09;88.36
57562;BME280;43397;51.530;5.974;2022-07-29T01:44:02;101337.16;;;16.98;91.05
57562;BME280;43397;51.530;5.974;2022-07-29T01:46:35;101352.53;;;16.91;93.35
57562;BME280;43397;51.530;5.974;2022-07-29T01:49:07;101335.91;;;16.77;93.71
57562;BME280;43397;51.530;5.974;2022-07-29T01:51:38;101320.91;;;16.68;95.89
57562;BME280;43397;51.530;5.974;2022-07-29T01:54:10;101300.66;;;16.91;94.15
57562;BME280;43397;51.530;5.974;2022-07-29T01:56:39;101300.19;;;16.73;94.80
57562;BME280;43397;51.530;5.974;2022-07-29T01:59:08;101293.63;;;16.85;95.53
57562;BME280;43397;51.530;5.974;2022-07-29T02:01:36;101296.50;;;16.77;97.79
57562;BME280;43397;51.530;5.974;2022-07-29T02:04:04;101283.00;;;16.82;96.83
57562;BME280;43397;51.530;5.974;2022-07-29T02:06:32;101267.72;;;16.84;97.19
57562;BME280;43397;51.530;5.974;2022-07-29T02:08:59;101242.41;;;16.60;99.74
57562;BME280;43397;51.530;5.974;2022-07-29T02:11:25;101242.19;;;16.67;100.00
57562;BME280;43397;51.530;5.974;2022-07-29T02:13:52;101228.41;;;16.49;100.00
57562;BME280;43397;51.530;5.974;2022-07-29T02:16:22;101223.16;;;16.44;100.00
57562;BME280;43397;51.530;5.974;2022-07-29T02:18:52;101217.59;;;16.50;100.00
57562;BME280;43397;51.530;5.974;2022-07-29T02:21:19;101204.38;;;16.44;99.26
57562;BME280;43397;51.530;5.974;2022-07-29T02:23:47;101194.56;;;16.43;99.95
57562;BME280;43397;51.530;5.974;2022-07-29T02:26:14;101195.72;;;16.33;100.00
57562;BME280;43397;51.530;5.974;2022-07-29T02:28:41;101183.66;;;16.49;99.18
57562;BME280;43397;51.530;5.974;2022-07-29T02:31:07;101190.28;;;16.36;98.71
57562;BME280;43397;51.530;5.974;2022-07-29T02:33:35;101197.53;;;16.32;99.82
57562;BME280;43397;51.530;5.974;2022-07-29T02:36:02;101185.63;;;16.42;98.49
57562;BME280;43397;51.530;5.974;2022-07-29T02:38:29;101185.91;;;16.64;98.25
57562;BME280;43397;51.530;5.974;2022-07-29T02:40:56;101166.28;;;16.62;97.34
57562;BME280;43397;51.530;5.974;2022-07-29T02:43:25;101164.34;;;16.36;99.82
57562;BME280;43397;51.530;5.974;2022-07-29T02:45:52;101158.81;;;16.42;99.58
57562;BME280;43397;51.530;5.974;2022-07-29T02:48:24;101146.22;;;16.44;100.00
57562;BME280;43397;51.530;5.974;2022-07-29T02:51:01;101141.47;;;16.23;100.00
57562;BME280;43397;51.530;5.974;2022-07-29T02:53:33;101137.38;;;16.41;100.00
57562;BME280;43397;51.530;5.974;2022-07-29T02:56:00;101139.19;;;16.40;99.97
57562;BME280;43397;51.530;5.974;2022-07-29T02:58:29;101137.22;;;16.14;100.00
57562;BME280;43397;51.530;5.974;2022-07-29T03:01:02;101151.59;;;16.44;99.83
57562;BME280;43397;51.530;5.974;2022-07-29T03:03:32;101162.25;;;16.46;98.66
57562;BME280;43397;51.530;5.974;2022-07-29T03:06:03;101165.19;;;16.38;100.00
57562;BME280;43397;51.530;5.974;2022-07-29T03:08:30;101166.16;;;16.36;100.00
57562;BME280;43397;51.530;5.974;2022-07-29T03:10:57;101160.94;;;16.30;100.00
57562;BME280;43397;51.530;5.974;2022-07-29T03:13:23;101172.00;;;16.50;99.57
57562;BME280;43397;51.530;5.974;2022-07-29T03:15:51;101179.63;;;16.33;100.00
57562;BME280;43397;51.530;5.974;2022-07-29T03:18:17;101172.00;;;16.17;100.00
57562;BME280;43397;51.530;5.974;2022-07-29T03:20:43;101176.91;;;16.34;100.00
57562;BME280;43397;51.530;5.974;2022-07-29T03:23:11;101181.88;;;16.48;100.00
57562;BME280;43397;51.530;5.974;2022-07-29T03:25:37;101179.63;;;16.33;100.00
57562;BME280;43397;51.530;5.974;2022-07-29T03:28:03;101186.47;;;16.10;100.00
57562;BME280;43397;51.530;5.974;2022-07-29T03:30:28;101186.66;;;16.02;100.00
57562;BME280;43397;51.530;5.974;2022-07-29T03:32:54;101197.13;;;15.77;100.00
57562;BME280;43397;51.530;5.974;2022-07-29T03:35:20;101189.88;;;16.17;100.00
57562;BME280;43397;51.530;5.974;2022-07-29T03:37:46;101198.25;;;16.39;100.00
57562;BME280;43397;51.530;5.974;2022-07-29T03:40:18;101203.72;;;16.67;96.94
57562;BME280;43397;51.530;5.974;2022-07-29T03:42:45;101205.25;;;16.77;95.99
57562;BME280;43397;51.530;5.974;2022-07-29T03:45:15;101197.16;;;16.46;97.96
57562;BME280;43397;51.530;5.974;2022-07-29T03:47:45;101198.28;;;16.37;98.15
57562;BME280;43397;51.530;5.974;2022-07-29T03:50:12;101213.72;;;16.29;100.00
57562;BME280;43397;51.530;5.974;2022-07-29T03:52:40;101217.84;;;16.07;100.00
57562;BME280;43397;51.530;5.974;2022-07-29T03:55:07;101215.19;;;15.68;100.00
57562;BME280;43397;51.530;5.974;2022-07-29T03:57:36;101214.50;;;15.98;100.00
57562;BME280;43397;51.530;5.974;2022-07-29T04:00:03;101225.88;;;16.08;100.00
57562;BME280;43397;51.530;5.974;2022-07-29T04:02:30;101228.06;;;15.92;100.00
57562;BME280;43397;51.530;5.974;2022-07-29T04:04:57;101229.16;;;15.83;100.00
57562;BME280;43397;51.530;5.974;2022-07-29T04:07:22;101226.88;;;16.02;100.00
57562;BME280;43397;51.530;5.974;2022-07-29T04:09:48;101239.16;;;15.75;100.00
57562;BME280;43397;51.530;5.974;2022-07-29T04:12:14;101238.56;;;15.61;100.00
57562;BME280;43397;51.530;5.974;2022-07-29T04:14:41;101237.25;;;15.80;100.00
57562;BME280;43397;51.530;5.974;2022-07-29T04:17:07;101230.50;;;15.62;100.00
57562;BME280;43397;51.530;5.974;2022-07-29T04:19:33;101230.66;;;15.94;100.00
57562;BME280;43397;51.530;5.974;2022-07-29T04:21:59;101219.63;;;16.08;100.00
57562;BME280;43397;51.530;5.974;2022-07-29T04:24:26;101218.66;;;16.10;100.00
57562;BME280;43397;51.530;5.974;2022-07-29T04:26:52;101226.31;;;16.25;100.00
57562;BME280;43397;51.530;5.974;2022-07-29T04:29:18;101221.06;;;16.21;100.00
57562;BME280;43397;51.530;5.974;2022-07-29T04:31:45;101212.31;;;16.14;100.00
57562;BME280;43397;51.530;5.974;2022-07-29T04:34:11;101203.88;;;15.94;100.00
57562;BME280;43397;51.530;5.974;2022-07-29T04:36:38;101210.78;;;16.02;100.00
57562;BME280;43397;51.530;5.974;2022-07-29T04:39:04;101192.78;;;16.09;100.00
57562;BME280;43397;51.530;5.974;2022-07-29T04:41:30;101196.91;;;16.22;100.00
57562;BME280;43397;51.530;5.974;2022-07-29T04:43:56;101188.47;;;16.02;100.00
57562;BME280;43397;51.530;5.974;2022-07-29T04:46:22;101179.41;;;16.08;100.00
57562;BME280;43397;51.530;5.974;2022-07-29T04:48:50;101189.63;;;16.26;100.00
57562;BME280;43397;51.530;5.974;2022-07-29T04:51:15;101194.72;;;16.37;100.00
57562;BME280;43397;51.530;5.974;2022-07-29T04:53:42;101213.56;;;15.99;100.00
57562;BME280;43397;51.530;5.974;2022-07-29T04:56:10;101205.09;;;15.80;100.00
57562;BME280;43397;51.530;5.974;2022-07-29T04:58:36;101216.41;;;15.93;100.00
57562;BME280;43397;51.530;5.974;2022-07-29T05:01:02;101217.22;;;15.97;100.00
57562;BME280;43397;51.530;5.974;2022-07-29T05:03:28;101222.53;;;15.98;100.00
57562;BME280;43397;51.530;5.974;2022-07-29T05:05:55;101222.84;;;15.86;100.00
57562;BME280;43397;51.530;5.974;2022-07-29T05:08:22;101218.56;;;15.77;100.00
57562;BME280;43397;51.530;5.974;2022-07-29T05:10:48;101214.09;;;15.78;100.00
57562;BME280;43397;51.530;5.974;2022-07-29T05:13:13;101217.81;;;15.71;100.00
57562;BME280;43397;51.530;5.974;2022-07-29T05:15:39;101218.19;;;15.93;100.00
57562;BME280;43397;51.530;5.974;2022-07-29T05:18:05;101212.38;;;15.75;100.00
57562;BME280;43397;51.530;5.974;2022-07-29T05:20:31;101215.50;;;15.94;100.00
57562;BME280;43397;51.530;5.974;2022-07-29T05:22:59;101210.41;;;15.82;100.00
57562;BME280;43397;51.530;5.974;2022-07-29T05:25:26;101222.94;;;16.17;100.00
57562;BME280;43397;51.530;5.974;2022-07-29T05:27:53;101220.03;;;16.27;100.00
57562;BME280;43397;51.530;5.974;2022-07-29T05:30:18;101222.88;;;16.20;100.00
57562;BME280;43397;51.530;5.974;2022-07-29T05:32:45;101209.19;;;15.95;100.00
57562;BME280;43397;51.530;5.974;2022-07-29T05:35:13;101204.50;;;16.05;100.00
57562;BME280;43397;51.530;5.974;2022-07-29T05:37:40;101221.31;;;16.12;100.00
57562;BME280;43397;51.530;5.974;2022-07-29T05:40:08;101213.66;;;16.31;100.00
57562;BME280;43397;51.530;5.974;2022-07-29T05:42:34;101214.28;;;16.06;100.00
57562;BME280;43397;51.530;5.974;2022-07-29T05:45:00;101209.31;;;16.27;100.00
57562;BME280;43397;51.530;5.974;2022-07-29T05:47:26;101216.66;;;16.18;100.00
57562;BME280;43397;51.530;5.974;2022-07-29T05:49:52;101209.22;;;15.94;100.00
57562;BME280;43397;51.530;5.974;2022-07-29T05:52:18;101215.94;;;16.12;100.00
57562;BME280;43397;51.530;5.974;2022-07-29T05:54:44;101220.25;;;16.17;100.00
57562;BME280;43397;51.530;5.974;2022-07-29T05:57:16;101226.41;;;15.85;100.00
57562;BME280;43397;51.530;5.974;2022-07-29T05:59:42;101227.84;;;16.00;100.00
57562;BME280;43397;51.530;5.974;2022-07-29T06:02:08;101226.81;;;16.06;100.00
57562;BME280;43397;51.530;5.974;2022-07-29T06:04:34;101228.28;;;16.19;100.00
57562;BME280;43397;51.530;5.974;2022-07-29T06:07:00;101237.19;;;16.19;100.00
57562;BME280;43397;51.530;5.974;2022-07-29T06:09:26;101235.56;;;16.14;100.00
57562;BME280;43397;51.530;5.974;2022-07-29T06:11:52;101230.31;;;16.09;100.00
57562;BME280;43397;51.530;5.974;2022-07-29T06:14:19;101232.53;;;16.28;100.00
57562;BME280;43397;51.530;5.974;2022-07-29T06:16:45;101234.25;;;15.94;100.00
57562;BME280;43397;51.530;5.974;2022-07-29T06:19:11;101240.34;;;16.01;100.00
57562;BME280;43397;51.530;5.974;2022-07-29T06:21:41;101237.00;;;15.91;100.00
57562;BME280;43397;51.530;5.974;2022-07-29T06:24:07;101240.00;;;16.15;100.00
57562;BME280;43397;51.530;5.974;2022-07-29T06:26:33;101236.78;;;16.00;100.00
57562;BME280;43397;51.530;5.974;2022-07-29T06:28:59;101242.56;;;16.19;100.00
57562;BME280;43397;51.530;5.974;2022-07-29T06:31:26;101235.50;;;16.15;100.00
57562;BME280;43397;51.530;5.974;2022-07-29T06:33:52;101216.53;;;16.24;100.00
57562;BME280;43397;51.530;5.974;2022-07-29T06:36:18;101222.31;;;16.08;100.00
57562;BME280;43397;51.530;5.974;2022-07-29T06:38:44;101217.47;;;15.86;100.00
57562;BME280;43397;51.530;5.974;2022-07-29T06:41:10;101223.81;;;15.82;100.00
57562;BME280;43397;51.530;5.974;2022-07-29T06:43:37;101213.09;;;15.82;100.00
57562;BME280;43397;51.530;5.974;2022-07-29T06:46:05;101215.69;;;15.85;100.00
57562;BME280;43397;51.530;5.974;2022-07-29T06:48:33;101214.06;;;15.79;100.00
57562;BME280;43397;51.530;5.974;2022-07-29T06:50:59;101213.72;;;15.93;100.00
57562;BME280;43397;51.530;5.974;2022-07-29T06:53:25;101207.84;;;15.77;100.00
57562;BME280;43397;51.530;5.974;2022-07-29T06:55:51;101205.16;;;15.79;100.00
57562;BME280;43397;51.530;5.974;2022-07-29T06:58:17;101218.31;;;15.88;100.00
57562;BME280;43397;51.530;5.974;2022-07-29T07:00:46;101229.06;;;15.87;100.00
57562;BME280;43397;51.530;5.974;2022-07-29T07:03:11;101233.81;;;15.75;100.00
57562;BME280;43397;51.530;5.974;2022-07-29T07:05:39;101234.41;;;15.88;100.00
57562;BME280;43397;51.530;5.974;2022-07-29T07:08:05;101240.91;;;15.76;100.00
57562;BME280;43397;51.530;5.974;2022-07-29T07:10:30;101247.94;;;15.82;100.00
57562;BME280;43397;51.530;5.974;2022-07-29T07:12:56;101262.03;;;15.50;100.00
57562;BME280;43397;51.530;5.974;2022-07-29T07:15:22;101263.59;;;15.60;100.00
57562;BME280;43397;51.530;5.974;2022-07-29T07:17:48;101267.94;;;15.66;100.00
57562;BME280;43397;51.530;5.974;2022-07-29T07:20:14;101273.34;;;15.64;100.00
57562;BME280;43397;51.530;5.974;2022-07-29T07:22:41;101267.84;;;15.70;100.00
57562;BME280;43397;51.530;5.974;2022-07-29T07:25:07;101278.44;;;15.76;100.00
57562;BME280;43397;51.530;5.974;2022-07-29T07:27:33;101265.84;;;15.80;100.00
57562;BME280;43397;51.530;5.974;2022-07-29T07:30:00;101271.53;;;15.64;100.00
57562;BME280;43397;51.530;5.974;2022-07-29T07:32:26;101281.25;;;15.70;100.00
57562;BME280;43397;51.530;5.974;2022-07-29T07:34:51;101270.69;;;15.62;100.00
57562;BME280;43397;51.530;5.974;2022-07-29T07:37:17;101260.25;;;15.91;100.00
57562;BME280;43397;51.530;5.974;2022-07-29T07:39:44;101269.78;;;16.02;100.00
57562;BME280;43397;51.530;5.974;2022-07-29T07:42:10;101264.41;;;16.02;100.00
57562;BME280;43397;51.530;5.974;2022-07-29T07:44:36;101263.69;;;15.96;100.00
57562;BME280;43397;51.530;5.974;2022-07-29T07:47:03;101280.09;;;16.19;100.00
57562;BME280;43397;51.530;5.974;2022-07-29T07:49:29;101297.50;;;16.03;100.00
57562;BME280;43397;51.530;5.974;2022-07-29T07:51:55;101297.16;;;15.79;100.00
57562;BME280;43397;51.530;5.974;2022-07-29T07:54:21;101301.28;;;15.94;100.00
57562;BME280;43397;51.530;5.974;2022-07-29T07:56:48;101306.66;;;15.93;100.00
57562;BME280;43397;51.530;5.974;2022-07-29T07:59:14;101299.88;;;16.15;100.00
57562;BME280;43397;51.530;5.974;2022-07-29T08:01:40;101288.22;;;16.18;100.00
57562;BME280;43397;51.530;5.974;2022-07-29T08:04:06;101291.22;;;16.40;100.00
57562;BME280;43397;51.530;5.974;2022-07-29T08:06:32;101296.38;;;16.48;100.00
57562;BME280;43397;51.530;5.974;2022-07-29T08:08:57;101279.97;;;16.60;100.00
57562;BME280;43397;51.530;5.974;2022-07-29T08:11:24;101280.69;;;16.66;100.00
57562;BME280;43397;51.530;5.974;2022-07-29T08:13:52;101285.19;;;16.66;100.00
57562;BME280;43397;51.530;5.974;2022-07-29T08:16:17;101292.91;;;16.80;100.00
57562;BME280;43397;51.530;5.974;2022-07-29T08:18:44;101295.56;;;16.80;100.00
57562;BME280;43397;51.530;5.974;2022-07-29T08:21:11;101300.38;;;16.65;100.00
57562;BME280;43397;51.530;5.974;2022-07-29T08:23:37;101298.47;;;16.71;100.00
57562;BME280;43397;51.530;5.974;2022-07-29T08:26:03;101303.44;;;16.88;100.00
57562;BME280;43397;51.530;5.974;2022-07-29T08:28:32;101298.88;;;16.90;100.00
57562;BME280;43397;51.530;5.974;2022-07-29T08:30:59;101302.78;;;16.76;100.00
57562;BME280;43397;51.530;5.974;2022-07-29T08:33:25;101312.38;;;16.88;100.00
57562;BME280;43397;51.530;5.974;2022-07-29T08:35:50;101308.84;;;16.86;100.00
57562;BME280;43397;51.530;5.974;2022-07-29T08:38:16;101304.31;;;16.88;100.00
57562;BME280;43397;51.530;5.974;2022-07-29T08:40:42;101303.47;;;16.86;100.00
57562;BME280;43397;51.530;5.974;2022-07-29T08:43:09;101305.47;;;17.11;100.00
57562;BME280;43397;51.530;5.974;2022-07-29T08:45:42;101311.19;;;17.31;100.00
57562;BME280;43397;51.530;5.974;2022-07-29T08:48:11;101310.09;;;17.37;100.00
57562;BME280;43397;51.530;5.974;2022-07-29T08:50:38;101305.41;;;17.14;100.00
57562;BME280;43397;51.530;5.974;2022-07-29T08:53:05;101299.34;;;17.37;100.00
57562;BME280;43397;51.530;5.974;2022-07-29T08:55:33;101300.56;;;17.56;100.00
57562;BME280;43397;51.530;5.974;2022-07-29T08:58:00;101295.59;;;17.72;100.00
57562;BME280;43397;51.530;5.974;2022-07-29T09:00:26;101306.34;;;17.72;100.00
57562;BME280;43397;51.530;5.974;2022-07-29T09:02:56;101307.50;;;17.63;100.00
57562;BME280;43397;51.530;5.974;2022-07-29T09:05:27;101309.88;;;17.74;100.00
57562;BME280;43397;51.530;5.974;2022-07-29T09:07:53;101317.63;;;17.85;100.00
57562;BME280;43397;51.530;5.974;2022-07-29T09:10:20;101321.31;;;17.81;100.00
57562;BME280;43397;51.530;5.974;2022-07-29T09:12:46;101320.25;;;17.88;100.00
57562;BME280;43397;51.530;5.974;2022-07-29T09:15:13;101326.50;;;17.88;100.00
57562;BME280;43397;51.530;5.974;2022-07-29T09:17:40;101319.59;;;17.78;100.00
57562;BME280;43397;51.530;5.974;2022-07-29T09:20:08;101327.69;;;18.08;100.00
57562;BME280;43397;51.530;5.974;2022-07-29T09:22:36;101323.44;;;18.56;100.00
57562;BME280;43397;51.530;5.974;2022-07-29T09:25:01;101316.88;;;18.89;100.00
57562;BME280;43397;51.530;5.974;2022-07-29T09:27:27;101316.13;;;19.11;100.00
57562;BME280;43397;51.530;5.974;2022-07-29T09:29:57;101313.34;;;19.38;100.00
57562;BME280;43397;51.530;5.974;2022-07-29T09:32:23;101321.31;;;19.41;97.48
57562;BME280;43397;51.530;5.974;2022-07-29T09:34:49;101321.41;;;19.14;99.23
57562;BME280;43397;51.530;5.974;2022-07-29T09:37:25;101315.41;;;19.55;96.04
57562;BME280;43397;51.530;5.974;2022-07-29T09:39:53;101326.44;;;19.96;93.68
57562;BME280;43397;51.530;5.974;2022-07-29T09:42:27;101323.63;;;20.43;91.96
57562;BME280;43397;51.530;5.974;2022-07-29T09:44:54;101339.63;;;20.47;87.21
57562;BME280;43397;51.530;5.974;2022-07-29T09:47:27;101330.28;;;20.34;87.28
57562;BME280;43397;51.530;5.974;2022-07-29T09:50:06;101332.22;;;20.08;87.17
57562;BME280;43397;51.530;5.974;2022-07-29T09:52:44;101329.47;;;20.32;87.76
57562;BME280;43397;51.530;5.974;2022-07-29T09:55:12;101334.88;;;20.32;93.52
57562;BME280;43397;51.530;5.974;2022-07-29T09:57:38;101329.81;;;20.01;87.12
57562;BME280;43397;51.530;5.974;2022-07-29T10:00:07;101325.78;;;19.89;91.37
57562;BME280;43397;51.530;5.974;2022-07-29T10:02:35;101329.38;;;20.11;89.36
57562;BME280;43397;51.530;5.974;2022-07-29T10:05:03;101321.09;;;20.38;86.85
57562;BME280;43397;51.530;5.974;2022-07-29T10:07:43;101327.00;;;20.70;92.77
57562;BME280;43397;51.530;5.974;2022-07-29T10:10:09;101322.94;;;21.21;85.16
57562;BME280;43397;51.530;5.974;2022-07-29T10:12:48;101327.47;;;21.00;89.12
57562;BME280;43397;51.530;5.974;2022-07-29T10:15:15;101324.44;;;21.68;89.09
57562;BME280;43397;51.530;5.974;2022-07-29T10:17:41;101322.09;;;21.79;85.31
57562;BME280;43397;51.530;5.974;2022-07-29T10:20:08;101326.25;;;22.05;86.55
57562;BME280;43397;51.530;5.974;2022-07-29T10:22:34;101327.28;;;22.03;84.85
57562;BME280;43397;51.530;5.974;2022-07-29T10:25:00;101321.34;;;22.13;82.14
57562;BME280;43397;51.530;5.974;2022-07-29T10:27:27;101317.03;;;22.09;80.01
57562;BME280;43397;51.530;5.974;2022-07-29T10:29:54;101316.41;;;22.41;79.49
57562;BME280;43397;51.530;5.974;2022-07-29T10:32:32;101314.13;;;22.50;75.07
57562;BME280;43397;51.530;5.974;2022-07-29T10:35:24;101310.56;;;22.85;81.76
57562;BME280;43397;51.530;5.974;2022-07-29T10:38:15;101312.22;;;23.05;75.52
57562;BME280;43397;51.530;5.974;2022-07-29T10:40:54;101317.06;;;23.33;79.14
57562;BME280;43397;51.530;5.974;2022-07-29T10:43:27;101304.72;;;23.10;77.69
57562;BME280;43397;51.530;5.974;2022-07-29T10:45:59;101307.50;;;23.26;76.95
57562;BME280;43397;51.530;5.974;2022-07-29T10:48:24;101300.41;;;23.56;77.90
57562;BME280;43397;51.530;5.974;2022-07-29T10:50:58;101307.38;;;23.78;71.66
57562;BME280;43397;51.530;5.974;2022-07-29T10:53:25;101311.47;;;24.01;73.42
57562;BME280;43397;51.530;5.974;2022-07-29T10:56:23;101309.53;;;24.19;72.82
57562;BME280;43397;51.530;5.974;2022-07-29T10:59:23;101305.69;;;24.07;71.60
57562;BME280;43397;51.530;5.974;2022-07-29T11:01:51;101304.75;;;24.38;70.68
57562;BME280;43397;51.530;5.974;2022-07-29T11:05:01;101301.44;;;24.65;70.62
57562;BME280;43397;51.530;5.974;2022-07-29T11:07:27;101301.78;;;24.59;70.68
57562;BME280;43397;51.530;5.974;2022-07-29T11:10:20;101306.66;;;24.98;65.54
57562;BME280;43397;51.530;5.974;2022-07-29T11:12:46;101300.16;;;24.71;70.70
57562;BME280;43397;51.530;5.974;2022-07-29T11:15:16;101301.09;;;24.23;68.63
57562;BME280;43397;51.530;5.974;2022-07-29T11:18:04;101302.88;;;24.71;68.09
57562;BME280;43397;51.530;5.974;2022-07-29T11:20:38;101299.63;;;24.94;68.88
57562;BME280;43397;51.530;5.974;2022-07-29T11:23:18;101301.50;;;25.08;67.99
57562;BME280;43397;51.530;5.974;2022-07-29T11:25:44;101294.84;;;25.28;67.64
57562;BME280;43397;51.530;5.974;2022-07-29T11:28:13;101297.28;;;25.47;67.73
57562;BME280;43397;51.530;5.974;2022-07-29T11:30:48;101296.38;;;25.90;67.90
57562;BME280;43397;51.530;5.974;2022-07-29T11:33:28;101299.53;;;26.11;64.91
57562;BME280;43397;51.530;5.974;2022-07-29T11:36:07;101302.09;;;25.99;59.75
57562;BME280;43397;51.530;5.974;2022-07-29T11:38:33;101304.47;;;26.18;62.88
57562;BME280;43397;51.530;5.974;2022-07-29T11:41:21;101293.66;;;25.90;61.57
57562;BME280;43397;51.530;5.974;2022-07-29T11:43:47;101293.97;;;26.12;60.97
57562;BME280;43397;51.530;5.974;2022-07-29T11:46:14;101292.53;;;26.34;63.61
57562;BME280;43397;51.530;5.974;2022-07-29T11:48:43;101291.03;;;26.42;58.14
57562;BME280;43397;51.530;5.974;2022-07-29T11:51:10;101292.53;;;26.61;59.15
57562;BME280;43397;51.530;5.974;2022-07-29T11:53:39;101292.13;;;26.40;55.89
57562;BME280;43397;51.530;5.974;2022-07-29T11:56:07;101288.06;;;26.05;56.97
57562;BME280;43397;51.530;5.974;2022-07-29T11:58:33;101286.94;;;26.22;61.83
57562;BME280;43397;51.530;5.974;2022-07-29T12:01:00;101281.22;;;26.80;58.36
57562;BME280;43397;51.530;5.974;2022-07-29T12:03:27;101286.38;;;26.97;56.51
57562;BME280;43397;51.530;5.974;2022-07-29T12:05:55;101288.78;;;25.95;57.44
57562;BME280;43397;51.530;5.974;2022-07-29T12:08:22;101287.44;;;26.42;59.17
57562;BME280;43397;51.530;5.974;2022-07-29T12:10:49;101283.88;;;27.07;55.17
57562;BME280;43397;51.530;5.974;2022-07-29T12:13:17;101285.59;;;26.95;56.03
57562;BME280;43397;51.530;5.974;2022-07-29T12:15:51;101283.44;;;27.26;53.09
57562;BME280;43397;51.530;5.974;2022-07-29T12:18:19;101287.50;;;26.27;50.99
57562;BME280;43397;51.530;5.974;2022-07-29T12:20:46;101280.97;;;26.30;52.07
57562;BME280;43397;51.530;5.974;2022-07-29T12:23:15;101282.41;;;26.76;53.07
57562;BME280;43397;51.530;5.974;2022-07-29T12:25:43;101286.19;;;27.26;51.94
57562;BME280;43397;51.530;5.974;2022-07-29T12:28:10;101282.00;;;27.59;53.30
57562;BME280;43397;51.530;5.974;2022-07-29T12:30:40;101284.09;;;28.05;52.63
57562;BME280;43397;51.530;5.974;2022-07-29T12:33:14;101289.22;;;28.09;51.76
57562;BME280;43397;51.530;5.974;2022-07-29T12:35:41;101290.78;;;28.01;49.80
57562;BME280;43397;51.530;5.974;2022-07-29T12:38:09;101296.00;;;28.04;47.64
57562;BME280;43397;51.530;5.974;2022-07-29T12:40:37;101285.09;;;27.91;47.70
57562;BME280;43397;51.530;5.974;2022-07-29T12:43:11;101278.38;;;27.71;47.96
57562;BME280;43397;51.530;5.974;2022-07-29T12:45:37;101286.47;;;28.34;45.68
57562;BME280;43397;51.530;5.974;2022-07-29T12:48:05;101280.84;;;27.74;46.03
57562;BME280;43397;51.530;5.974;2022-07-29T12:50:31;101287.00;;;28.15;45.38
57562;BME280;43397;51.530;5.974;2022-07-29T12:53:08;101284.91;;;27.81;44.59